createdAt,value
2022-08-28T00:00:41.757Z,6.87
2022-08-28T00:05:44.904Z,5.13
2022-08-28T00:10:47.081Z,4.83
2022-08-28T00:15:58.204Z,4.63
2022-08-28T00:21:00.892Z,4.60
2022-08-28T00:26:02.763Z,4.40
2022-08-28T00:31:05.227Z,4.13
2022-08-28T00:36:07.064Z,4.57
2022-08-28T00:41:09.078Z,3.60
2022-08-28T00:46:24.165Z,4.10
2022-08-28T00:51:46.774Z,4.53
2022-08-28T00:56:50.080Z,4.70
2022-08-28T01:01:58.899Z,3.80
2022-08-28T01:07:07.937Z,4.30
2022-08-28T01:12:22.741Z,4.90
2022-08-28T01:17:31.244Z,4.47
2022-08-28T01:23:20.207Z,5.37
2022-08-28T01:28:21.955Z,6.07
2022-08-28T01:33:28.020Z,7.10
2022-08-28T01:38:30.209Z,7.10
2022-08-28T01:43:32.156Z,6.60
2022-08-28T01:48:41.582Z,7.43
2022-08-28T01:53:46.687Z,7.90
2022-08-28T01:58:48.826Z,7.20
2022-08-28T02:03:53.080Z,6.03
2022-08-28T02:08:55.533Z,6.70
2022-08-28T02:13:57.263Z,6.80
2022-08-28T02:19:00.678Z,7.07
2022-08-28T02:24:04.448Z,7.30
2022-08-28T02:29:06.405Z,7.03
2022-08-28T02:34:09.331Z,7.00
2022-08-28T02:39:11.512Z,5.37
2022-08-28T02:44:13.251Z,5.77
2022-08-28T02:49:14.986Z,5.20
2022-08-28T02:54:18.525Z,4.93
2022-08-28T02:59:21.175Z,5.27
2022-08-28T03:04:22.936Z,4.20
2022-08-28T03:09:25.279Z,4.40
2022-08-28T03:14:27.747Z,3.67
2022-08-28T03:19:29.556Z,4.17
2022-08-28T03:24:31.281Z,4.00
2022-08-28T03:29:33.000Z,3.73
2022-08-28T03:34:34.692Z,4.20
2022-08-28T03:39:36.414Z,3.77
2022-08-28T03:44:39.663Z,3.50
2022-08-28T03:49:41.435Z,3.23
2022-08-28T03:54:43.513Z,3.67
2022-08-28T03:59:51.587Z,3.63
2022-08-28T04:04:53.312Z,2.50
2022-08-28T04:09:55.054Z,2.60
2022-08-28T04:14:56.905Z,2.93
2022-08-28T04:19:58.713Z,2.60
2022-08-28T04:25:01.042Z,2.63
2022-08-28T04:30:04.612Z,3.10
2022-08-28T04:35:12.004Z,3.27
2022-08-28T04:40:14.885Z,3.20
2022-08-28T04:45:16.794Z,2.10
2022-08-28T04:50:18.515Z,2.30
2022-08-28T04:55:27.416Z,2.30
2022-08-28T05:00:45.981Z,2.70
2022-08-28T05:05:53.350Z,2.90
2022-08-28T05:10:57.916Z,2.13
2022-08-28T05:16:04.087Z,2.50
2022-08-28T05:21:21.331Z,2.40
2022-08-28T05:26:23.521Z,2.90
2022-08-28T05:31:31.986Z,2.53
2022-08-28T05:36:38.396Z,2.63
2022-08-28T05:41:45.559Z,3.00
2022-08-28T05:46:48.687Z,2.67
2022-08-28T05:51:50.580Z,3.17
2022-08-28T05:56:52.297Z,2.53
2022-08-28T06:01:54.057Z,2.50
2022-08-28T06:06:56.169Z,2.70
2022-08-28T06:12:02.252Z,3.30
2022-08-28T06:17:05.044Z,2.70
2022-08-28T06:22:07.668Z,3.70
2022-08-28T06:27:09.549Z,4.70
2022-08-28T06:32:11.375Z,4.00
2022-08-28T06:37:13.130Z,3.00
2022-08-28T06:42:14.857Z,3.23
2022-08-28T06:47:16.557Z,3.50
2022-08-28T06:52:19.179Z,3.73
2022-08-28T06:57:20.885Z,4.03
2022-08-28T07:02:22.726Z,4.10
2022-08-28T07:07:31.444Z,2.90
2022-08-28T07:12:33.926Z,3.20
2022-08-28T07:17:36.058Z,4.20
2022-08-28T07:22:41.008Z,3.83
2022-08-28T07:27:43.662Z,3.50
2022-08-28T07:32:49.124Z,5.87
2022-08-28T07:37:50.829Z,3.73
2022-08-28T07:43:10.998Z,3.50
2022-08-28T07:48:13.121Z,4.33
2022-08-28T07:53:15.390Z,3.60
2022-08-28T07:58:20.372Z,4.83
2022-08-28T08:03:22.904Z,3.83
2022-08-28T08:08:25.822Z,4.27
2022-08-28T08:13:30.118Z,3.33
2022-08-28T08:18:32.070Z,3.57
2022-08-28T08:23:35.797Z,4.00
2022-08-28T08:28:41.127Z,3.47
2022-08-28T08:33:48.022Z,4.20
2022-08-28T08:38:59.972Z,3.63
2022-08-28T08:44:34.717Z,3.73
2022-08-28T08:49:54.028Z,5.17
2022-08-28T08:55:34.162Z,4.13
2022-08-28T09:01:00.982Z,4.53
2022-08-28T09:06:05.666Z,4.63
2022-08-28T09:11:52.246Z,4.40
2022-08-28T09:17:00.553Z,5.57
2022-08-28T09:22:02.993Z,4.20
2022-08-28T09:27:26.822Z,4.60
2022-08-28T09:32:38.591Z,4.87
2022-08-28T09:37:43.883Z,6.40
2022-08-28T09:43:30.000Z,4.07
2022-08-28T09:48:41.166Z,4.00
2022-08-28T09:53:52.059Z,5.03
2022-08-28T09:59:04.889Z,5.33
2022-08-28T10:04:53.224Z,4.17
2022-08-28T10:10:13.037Z,5.00
2022-08-28T10:15:24.694Z,5.10
2022-08-28T10:21:08.428Z,4.67
2022-08-28T10:26:43.298Z,4.80
2022-08-28T10:32:31.316Z,4.80
2022-08-28T10:38:17.585Z,4.43
2022-08-28T10:43:34.143Z,4.10
2022-08-28T10:48:49.624Z,4.70
2022-08-28T10:54:02.984Z,4.33
2022-08-28T10:59:04.807Z,4.20
2022-08-28T11:04:25.168Z,4.10
2022-08-28T11:09:42.483Z,5.10
2022-08-28T11:14:51.068Z,4.90
2022-08-28T11:20:25.001Z,4.33
2022-08-28T11:25:33.363Z,4.07
2022-08-28T11:30:37.325Z,5.10
2022-08-28T11:35:51.600Z,4.80
2022-08-28T11:41:09.484Z,4.70
2022-08-28T11:46:32.855Z,6.30
2022-08-28T11:52:09.745Z,6.17
2022-08-28T11:57:41.020Z,5.50
2022-08-28T12:03:08.025Z,5.10
2022-08-28T12:08:11.596Z,5.40
2022-08-28T12:13:52.205Z,5.80
2022-08-28T12:18:53.822Z,5.97
2022-08-28T12:24:15.179Z,6.30
2022-08-28T12:29:37.461Z,6.57
2022-08-28T12:35:16.589Z,5.20
2022-08-28T12:40:53.278Z,6.77
2022-08-28T12:46:18.954Z,6.17
2022-08-28T12:51:39.401Z,5.73
2022-08-28T12:56:41.156Z,4.70
2022-08-28T13:01:44.525Z,4.93
2022-08-28T13:06:46.330Z,4.57
2022-08-28T13:11:51.445Z,4.47
2022-08-28T13:16:53.232Z,4.40
2022-08-28T13:22:01.979Z,3.77
2022-08-28T13:27:06.267Z,3.97
2022-08-28T13:32:17.454Z,3.43
2022-08-28T13:37:49.429Z,3.73
2022-08-28T13:43:02.226Z,3.60
2022-08-28T13:48:04.826Z,4.33
2022-08-28T13:53:08.245Z,3.93
2022-08-28T13:58:10.683Z,4.03
2022-08-28T14:03:35.789Z,3.40
2022-08-28T14:08:39.974Z,3.57
2022-08-28T14:13:47.178Z,3.63
2022-08-28T14:18:59.513Z,3.27
2022-08-28T14:24:02.515Z,2.87
2022-08-28T14:29:11.122Z,4.03
2022-08-28T14:34:19.572Z,3.23
2022-08-28T14:39:27.009Z,3.73
2022-08-28T14:44:28.792Z,3.27
2022-08-28T14:49:30.601Z,3.30
2022-08-28T14:54:33.747Z,3.37
2022-08-28T14:59:36.172Z,3.17
2022-08-28T15:04:38.173Z,2.90
2022-08-28T15:09:42.973Z,3.10
2022-08-28T15:14:54.854Z,3.60
2022-08-28T15:20:00.415Z,2.83
2022-08-28T15:25:03.286Z,2.30
2022-08-28T15:30:06.251Z,2.60
2022-08-28T15:35:08.716Z,3.00
2022-08-28T15:40:43.475Z,3.80
2022-08-28T15:45:45.745Z,2.40
2022-08-28T15:50:47.564Z,2.80
2022-08-28T15:55:50.474Z,3.40
2022-08-28T16:00:52.396Z,2.77
2022-08-28T16:05:54.497Z,2.63
2022-08-28T16:10:56.663Z,3.80
2022-08-28T16:15:59.591Z,2.63
2022-08-28T16:21:04.726Z,3.10
2022-08-28T16:26:09.283Z,3.00
2022-08-28T16:31:18.863Z,2.30
2022-08-28T16:36:23.747Z,2.40
2022-08-28T16:41:27.627Z,2.83
2022-08-28T16:46:29.956Z,2.70
2022-08-28T16:51:31.726Z,3.00
2022-08-28T16:56:33.859Z,1.80
2022-08-28T17:01:35.808Z,2.33
2022-08-28T17:06:37.991Z,2.00
2022-08-28T17:11:39.913Z,1.80
2022-08-28T17:16:41.745Z,1.70
2022-08-28T17:22:02.844Z,2.83
2022-08-28T17:27:05.863Z,2.60
2022-08-28T17:32:08.233Z,2.20
2022-08-28T17:37:11.064Z,2.20
2022-08-28T17:42:13.011Z,2.30
2022-08-28T17:47:14.846Z,2.57
2022-08-28T17:52:16.586Z,3.10
2022-08-28T17:57:18.348Z,2.03
2022-08-28T18:02:20.488Z,4.33
2022-08-28T18:07:23.648Z,2.70
2022-08-28T18:12:25.494Z,2.57
2022-08-28T18:17:28.196Z,2.10
2022-08-28T18:22:30.062Z,3.77
2022-08-28T18:27:33.626Z,2.33
2022-08-28T18:32:35.368Z,4.57
2022-08-28T18:37:37.566Z,2.83
2022-08-28T18:42:39.904Z,4.60
2022-08-28T18:47:41.615Z,1.90
2022-08-28T18:52:44.447Z,1.80
2022-08-28T18:57:46.156Z,2.50
2022-08-28T19:02:49.751Z,3.10
2022-08-28T19:07:52.346Z,2.07
2022-08-28T19:12:55.425Z,3.00
2022-08-28T19:18:00.262Z,2.10
2022-08-28T19:23:02.186Z,1.63
2022-08-28T19:28:04.184Z,1.87
2022-08-28T19:33:06.122Z,2.20
2022-08-28T19:38:08.017Z,2.80
2022-08-28T19:43:09.808Z,3.30
2022-08-28T19:48:18.744Z,2.27
2022-08-28T19:53:20.471Z,2.10
2022-08-28T19:58:22.219Z,3.37
2022-08-28T20:03:24.563Z,2.60
2022-08-28T20:08:26.381Z,2.20
2022-08-28T20:13:28.810Z,2.10
2022-08-28T20:18:30.539Z,1.90
2022-08-28T20:23:32.320Z,2.40
2022-08-28T20:28:34.125Z,3.57
2022-08-28T20:33:36.992Z,2.77
2022-08-28T20:38:40.697Z,2.70
2022-08-28T20:43:43.736Z,3.20
2022-08-28T20:48:45.957Z,2.67
2022-08-28T20:53:47.663Z,2.47
2022-08-28T20:58:49.388Z,6.27
2022-08-28T21:03:51.168Z,2.77
2022-08-28T21:08:53.515Z,3.23
2022-08-28T21:13:55.688Z,2.03
2022-08-28T21:19:15.213Z,2.73
2022-08-28T21:24:18.264Z,1.87
2022-08-28T21:29:22.745Z,3.30
2022-08-28T21:34:24.715Z,2.93
2022-08-28T21:39:26.435Z,2.83
2022-08-28T21:44:28.245Z,2.47
2022-08-28T21:49:30.098Z,3.33
2022-08-28T21:54:32.205Z,3.20
2022-08-28T21:59:37.986Z,2.37
2022-08-28T22:04:39.958Z,2.93
2022-08-28T22:09:42.453Z,3.13
2022-08-28T22:14:44.373Z,3.40
2022-08-28T22:19:46.594Z,2.33
2022-08-28T22:24:48.687Z,3.23
2022-08-28T22:29:51.000Z,3.20
2022-08-28T22:34:54.645Z,2.40
2022-08-28T22:39:57.431Z,2.87
2022-08-28T22:44:59.772Z,2.80
2022-08-28T22:50:01.881Z,3.57
2022-08-28T22:55:08.564Z,2.33
2022-08-28T23:00:20.250Z,2.77
2022-08-28T23:05:25.818Z,2.80
2022-08-28T23:10:48.334Z,2.80
2022-08-28T23:15:50.148Z,3.40
2022-08-28T23:20:52.461Z,3.90
2022-08-28T23:25:54.949Z,2.37
2022-08-28T23:30:56.761Z,2.57
2022-08-28T23:35:58.611Z,2.20
2022-08-28T23:41:02.062Z,3.07
2022-08-28T23:46:05.150Z,2.73
2022-08-28T23:51:13.038Z,3.20
2022-08-28T23:56:14.985Z,3.23
